Time;durP1;ratioP1;P1;durP2;ratioP2;P2;SDS_P1;SDS_P2;PMS_P1;PMS_P2;Temp;Humidity;BMP_temperature;BMP_pressure;BME280_temperature;BME280_humidity;BME280_pressure;Samples;Min_cycle;Max_cycle;Signal;HPM_P1;HPM_P2
2022/12/07 00:01:32;;;;;;;10.30;7.70;;;;;;;3.95;100.00;98233.94;4936533;29;20260;-84
2022/12/07 00:04:04;;;;;;;9.40;7.57;;;;;;;3.91;100.00;98236.75;4935974;29;20213;-83
2022/12/07 00:06:32;;;;;;;9.80;7.80;;;;;;;3.88;100.00;98229.88;4936100;29;20232;-83
2022/12/07 00:08:58;;;;;;;9.87;7.10;;;;;;;3.86;100.00;98234.28;4936007;29;20747;-83
2022/12/07 00:11:27;;;;;;;9.33;7.20;;;;;;;3.82;100.00;98237.97;4936618;29;20626;-83
2022/12/07 00:13:55;;;;;;;10.77;8.07;;;;;;;3.83;100.00;98228.34;4936576;29;20242;-83
2022/12/07 00:16:23;;;;;;;11.27;8.20;;;;;;;3.69;100.00;98234.16;4936397;29;20216;-83
2022/12/07 00:18:50;;;;;;;9.70;7.77;;;;;;;3.70;100.00;98242.81;4936178;29;20229;-84
2022/12/07 00:21:19;;;;;;;10.50;7.70;;;;;;;3.70;100.00;98238.47;4936257;29;20232;-83
2022/12/07 00:23:46;;;;;;;10.57;7.43;;;;;;;3.71;100.00;98234.94;4936333;29;20221;-84
2022/12/07 00:26:15;;;;;;;10.73;7.83;;;;;;;3.75;100.00;98235.66;4935459;29;20213;-84
2022/12/07 00:28:46;;;;;;;9.87;7.83;;;;;;;3.72;100.00;98236.63;4935936;29;20240;-83
2022/12/07 00:31:14;;;;;;;12.37;7.53;;;;;;;3.72;100.00;98239.22;4935794;29;20288;-84
2022/12/07 00:33:41;;;;;;;10.80;8.30;;;;;;;3.67;100.00;98238.56;4935489;29;20296;-83
2022/12/07 00:36:10;;;;;;;10.77;7.83;;;;;;;3.68;100.00;98224.56;4935361;29;20216;-83
2022/12/07 00:38:38;;;;;;;12.20;7.97;;;;;;;3.78;100.00;98231.16;4935487;29;20705;-83
2022/12/07 00:41:06;;;;;;;9.50;7.03;;;;;;;3.69;100.00;98225.44;4935586;29;20259;-85
2022/12/07 00:43:33;;;;;;;11.17;8.03;;;;;;;3.70;100.00;98225.38;4935567;29;20219;-83
2022/12/07 00:46:01;;;;;;;11.47;8.17;;;;;;;3.71;100.00;98224.47;4935210;29;20589;-85
2022/12/07 00:48:28;;;;;;;8.87;6.87;;;;;;;3.67;100.00;98227.28;4935423;29;20219;-85
2022/12/07 00:50:54;;;;;;;9.87;7.40;;;;;;;3.67;100.00;98230.72;4935658;29;20216;-85
2022/12/07 00:53:21;;;;;;;11.53;8.23;;;;;;;3.61;100.00;98238.81;4935308;29;20223;-85
2022/12/07 00:55:48;;;;;;;10.93;8.20;;;;;;;3.59;100.00;98240.66;4935324;29;20220;-85
2022/12/07 00:58:15;;;;;;;10.27;8.00;;;;;;;3.60;100.00;98237.13;4934873;29;20356;-84
2022/12/07 01:00:43;;;;;;;10.47;8.20;;;;;;;3.54;100.00;98245.19;4935174;29;20237;-84
2022/12/07 01:03:13;;;;;;;11.17;8.10;;;;;;;3.55;100.00;98246.88;4935249;29;20216;-84
2022/12/07 01:05:40;;;;;;;12.87;8.57;;;;;;;3.58;100.00;98238.94;4934926;29;20588;-84
2022/12/07 01:08:07;;;;;;;11.47;8.47;;;;;;;3.59;100.00;98235.41;4934621;29;20697;-84
2022/12/07 01:10:34;;;;;;;10.93;7.83;;;;;;;3.58;100.00;98233.72;4934660;29;20249;-84
2022/12/07 01:13:00;;;;;;;12.73;8.80;;;;;;;3.54;100.00;98236.53;4934735;29;20211;-84
2022/12/07 01:15:27;;;;;;;10.33;8.10;;;;;;;3.53;100.00;98227.81;4934715;29;20208;-83
2022/12/07 01:17:54;;;;;;;11.57;8.57;;;;;;;3.49;100.00;98236.69;4934378;29;20211;-83
2022/12/07 01:20:22;;;;;;;11.50;7.83;;;;;;;3.48;100.00;98237.59;4934557;29;20233;-84
2022/12/07 01:22:49;;;;;;;12.43;8.13;;;;;;;3.44;100.00;98236.03;4934906;29;20216;-83
2022/12/07 01:25:15;;;;;;;13.17;8.57;;;;;;;3.54;100.00;98231.31;4934865;29;20208;-83
2022/12/07 01:27:42;;;;;;;14.00;8.00;;;;;;;3.47;100.00;98229.81;4934658;29;20277;-83
2022/12/07 01:30:11;;;;;;;11.73;8.20;;;;;;;3.45;100.00;98240.34;4934767;29;20228;-85
2022/12/07 01:32:38;;;;;;;12.30;7.80;;;;;;;3.45;100.00;98242.97;4934898;29;20224;-85
2022/12/07 01:35:05;;;;;;;11.13;7.90;;;;;;;3.46;100.00;98236.81;4934761;29;20697;-85
2022/12/07 01:37:36;;;;;;;10.40;8.37;;;;;;;3.47;100.00;98241.13;4933943;29;20620;-84
2022/12/07 01:40:04;;;;;;;12.23;7.73;;;;;;;3.52;100.00;98247.03;4934332;29;20244;-84
2022/12/07 01:42:31;;;;;;;11.37;8.30;;;;;;;3.48;100.00;98248.06;4934298;29;20678;-84
2022/12/07 01:45:39;;;;;;;12.10;8.57;;;;;;;3.50;100.00;98241.03;4934229;29;20228;-84
2022/12/07 01:48:08;;;;;;;12.07;7.60;;;;;;;3.49;100.00;98243.69;4934302;29;20212;-84
2022/12/07 01:50:36;;;;;;;10.23;7.40;;;;;;;3.48;100.00;98242.81;4934302;29;20254;-84
2022/12/07 01:53:08;;;;;;;10.43;7.43;;;;;;;3.50;100.00;98250.63;4934365;29;20212;-84
2022/12/07 01:55:38;;;;;;;11.30;7.63;;;;;;;3.46;100.00;98244.66;4934582;29;20224;-84
2022/12/07 01:58:05;;;;;;;10.80;7.23;;;;;;;3.44;100.00;98251.72;4934374;29;20212;-84
2022/12/07 02:00:31;;;;;;;12.97;8.17;;;;;;;3.43;100.00;98244.75;4934270;29;20235;-84
2022/12/07 02:03:05;;;;;;;10.80;7.60;;;;;;;3.40;100.00;98239.69;4934473;29;20216;-84
2022/12/07 02:05:33;;;;;;;11.73;8.27;;;;;;;3.44;100.00;98251.72;4934618;29;20208;-84
2022/12/07 02:08:00;;;;;;;12.27;8.50;;;;;;;3.43;100.00;98244.75;4934420;29;20217;-84
2022/12/07 02:10:30;;;;;;;13.10;8.37;;;;;;;3.43;100.00;98244.75;4934529;29;20751;-84
2022/12/07 02:13:01;;;;;;;12.03;8.07;;;;;;;3.46;100.00;98242.03;4938258;29;20224;-84
2022/12/07 02:15:34;;;;;;;10.17;8.37;;;;;;;3.47;100.00;98243.75;4938599;29;20536;-84
2022/12/07 02:18:08;;;;;;;11.07;8.30;;;;;;;3.47;100.00;98243.75;4937781;29;20235;-84
2022/12/07 02:20:37;;;;;;;12.57;7.87;;;;;;;3.48;100.00;98245.44;4937754;29;20235;-84
2022/12/07 02:23:32;;;;;;;13.33;8.50;;;;;;;3.44;100.00;98237.78;4937979;29;20707;-84
2022/12/07 02:26:24;;;;;;;10.23;7.63;;;;;;;3.47;100.00;98245.50;4937593;29;20212;-84
2022/12/07 02:29:11;;;;;;;13.07;8.70;;;;;;;3.44;100.00;98235.19;4939650;29;20240;-84
2022/12/07 02:31:42;;;;;;;11.13;8.43;;;;;;;3.44;100.00;98246.50;4938045;29;20683;-84
2022/12/07 02:34:12;;;;;;;10.77;8.00;;;;;;;3.44;100.00;98236.03;4938271;29;20218;-84
2022/12/07 02:36:43;;;;;;;11.37;8.13;;;;;;;3.46;100.00;98228.13;4937811;29;20577;-84
2022/12/07 02:39:17;;;;;;;11.17;7.77;;;;;;;3.44;100.00;98225.59;4938432;29;20256;-84
2022/12/07 02:41:47;;;;;;;12.73;8.90;;;;;;;3.35;100.00;98225.94;4938015;29;20236;-84
2022/12/07 02:44:20;;;;;;;10.93;7.80;;;;;;;3.37;100.00;98229.31;4938008;29;20627;-84
2022/12/07 02:46:53;;;;;;;13.60;8.40;;;;;;;3.39;100.00;98226.66;4937294;29;20251;-84
2022/12/07 02:49:22;;;;;;;11.43;7.53;;;;;;;3.41;100.00;98220.47;4937331;29;20243;-84
2022/12/07 02:51:49;;;;;;;11.40;8.00;;;;;;;3.41;100.00;98225.69;4937330;29;20646;-84
2022/12/07 02:54:19;;;;;;;10.47;8.13;;;;;;;3.41;100.00;98217.00;4937579;29;20212;-79
2022/12/07 02:56:50;;;;;;;11.43;7.53;;;;;;;3.37;100.00;98218.88;4937446;29;20304;-85
2022/12/07 02:59:31;;;;;;;13.27;7.87;;;;;;;3.33;100.00;98224.28;4937411;29;20236;-84
2022/12/07 03:02:11;;;;;;;11.20;8.17;;;;;;;3.32;100.00;98214.75;4937339;29;20247;-84
2022/12/07 03:04:47;;;;;;;13.17;8.10;;;;;;;3.30;100.00;98206.16;4936889;29;20215;-84
2022/12/07 03:07:25;;;;;;;10.80;7.97;;;;;;;3.32;100.00;98205.19;4937115;29;20208;-84
2022/12/07 03:10:01;;;;;;;10.17;7.30;;;;;;;3.32;100.00;98209.53;4936944;29;20236;-84
2022/12/07 03:12:33;;;;;;;9.70;7.63;;;;;;;3.30;100.00;98199.13;4937039;29;20197;-84
2022/12/07 03:15:07;;;;;;;11.37;7.83;;;;;;;3.30;100.00;98208.75;4937342;29;20267;-84
2022/12/07 03:17:37;;;;;;;11.00;7.27;;;;;;;3.33;100.00;98196.41;4936938;29;20287;-84
2022/12/07 03:20:07;;;;;;;10.47;7.67;;;;;;;3.29;100.00;98204.41;4936812;29;20242;-84
2022/12/07 03:22:36;;;;;;;13.37;7.43;;;;;;;3.33;100.00;98208.63;4936748;29;20303;-84
2022/12/07 03:25:06;;;;;;;12.43;7.50;;;;;;;3.26;100.00;98204.56;4937033;29;20560;-84
2022/12/07 03:27:36;;;;;;;11.43;7.43;;;;;;;3.24;100.00;98207.22;4936695;29;20216;-84
2022/12/07 03:30:07;;;;;;;10.77;7.83;;;;;;;3.19;100.00;98201.31;4936789;29;20232;-84
2022/12/07 03:32:38;;;;;;;11.27;8.00;;;;;;;3.22;100.00;98198.59;4936852;29;20212;-84
2022/12/07 03:35:12;;;;;;;9.87;7.37;;;;;;;3.12;100.00;98201.63;4936608;29;20220;-84
2022/12/07 03:37:46;;;;;;;12.63;7.53;;;;;;;3.03;100.00;98197.63;4936508;29;20243;-84
2022/12/07 03:40:17;;;;;;;12.87;8.47;;;;;;;2.98;100.00;98202.16;4936558;29;20242;-84
2022/12/07 03:42:44;;;;;;;11.07;7.80;;;;;;;2.96;100.00;98201.38;4936644;29;20687;-84
2022/12/07 03:45:13;;;;;;;9.97;7.07;;;;;;;2.99;100.00;98196.00;4936578;29;20227;-84
2022/12/07 03:47:47;;;;;;;12.17;8.63;;;;;;;2.98;100.00;98198.69;4936168;29;20215;-85
2022/12/07 03:50:19;;;;;;;12.27;8.33;;;;;;;2.99;100.00;98192.56;4936643;29;20316;-85
2022/12/07 03:52:52;;;;;;;11.00;7.83;;;;;;;2.96;100.00;98196.16;4936380;29;20216;-85
2022/12/07 03:55:25;;;;;;;10.10;7.50;;;;;;;2.98;100.00;98194.31;4936374;29;20216;-85
2022/12/07 03:57:55;;;;;;;11.87;8.03;;;;;;;2.88;100.00;98198.19;4935918;29;20305;-84
2022/12/07 04:00:23;;;;;;;12.30;8.40;;;;;;;2.87;100.00;98186.03;4935916;29;20236;-85
2022/12/07 04:02:52;;;;;;;11.57;7.63;;;;;;;2.82;100.00;98193.19;4936162;29;20217;-85
2022/12/07 04:05:19;;;;;;;13.60;9.40;;;;;;;2.75;100.00;98186.50;4936100;29;20235;-84
2022/12/07 04:07:46;;;;;;;11.97;8.07;;;;;;;2.71;100.00;98190.16;4935810;29;20675;-85
2022/12/07 04:10:13;;;;;;;11.67;7.57;;;;;;;2.63;100.00;98186.97;4935721;29;20240;-85
2022/12/07 04:12:39;;;;;;;12.70;8.10;;;;;;;2.66;100.00;98167.72;4935913;29;20204;-84
2022/12/07 04:15:07;;;;;;;12.50;8.50;;;;;;;2.49;100.00;98152.72;4936002;29;20216;-85
2022/12/07 04:17:35;;;;;;;14.27;8.77;;;;;;;2.44;100.00;98159.84;4936052;29;20224;-84
2022/12/07 04:20:03;;;;;;;13.87;8.77;;;;;;;2.52;100.00;98163.03;4936078;29;20228;-84
2022/12/07 04:22:30;;;;;;;14.07;8.97;;;;;;;2.57;100.00;98166.31;4936124;29;20240;-85
2022/12/07 04:24:56;;;;;;;13.20;8.67;;;;;;;2.61;100.00;98160.09;4935855;29;20708;-85
2022/12/07 04:27:23;;;;;;;13.90;8.87;;;;;;;2.66;100.00;98159.91;4935494;29;20208;-84
2022/12/07 04:29:49;;;;;;;13.23;8.33;;;;;;;2.67;100.00;98154.63;4935894;29;20610;-85
2022/12/07 04:32:16;;;;;;;12.83;8.83;;;;;;;2.73;100.00;98156.16;4936167;29;20520;-84
2022/12/07 04:34:44;;;;;;;13.87;8.33;;;;;;;2.72;100.00;98150.09;4935461;29;20212;-85
2022/12/07 04:37:10;;;;;;;12.97;8.33;;;;;;;2.75;100.00;98139.53;4935438;29;20221;-85
2022/12/07 04:39:37;;;;;;;12.27;8.47;;;;;;;2.71;100.00;98135.38;4935441;29;20240;-85
2022/12/07 04:42:03;;;;;;;10.30;7.60;;;;;;;2.65;100.00;98126.91;4935539;29;20245;-85
2022/12/07 04:44:30;;;;;;;13.37;7.97;;;;;;;2.54;100.00;98129.94;4935229;29;20707;-84
2022/12/07 04:46:57;;;;;;;12.13;7.90;;;;;;;2.53;100.00;98137.78;4935215;29;20208;-84
2022/12/07 04:49:25;;;;;;;11.37;7.93;;;;;;;2.53;100.00;98137.78;4935545;29;20260;-83
2022/12/07 04:51:53;;;;;;;11.77;7.53;;;;;;;2.61;100.00;98161.81;4935450;29;20208;-84
2022/12/07 04:54:20;;;;;;;10.70;6.83;;;;;;;2.73;100.00;98161.38;4935097;29;20215;-84
2022/12/07 04:56:47;;;;;;;11.60;6.63;;;;;;;2.64;100.00;98153.91;4935395;29;20565;-83
2022/12/07 04:59:15;;;;;;;12.03;7.57;;;;;;;2.53;100.00;98153.44;4935395;29;20238;-83
2022/12/07 05:01:42;;;;;;;12.17;8.43;;;;;;;2.51;100.00;98156.09;4935347;29;20232;-84
2022/12/07 05:04:09;;;;;;;12.57;8.07;;;;;;;2.46;100.00;98158.03;4935222;29;20674;-83
2022/12/07 05:06:36;;;;;;;11.67;7.97;;;;;;;2.41;100.00;98165.19;4934914;29;20220;-84
2022/12/07 05:09:04;;;;;;;12.30;7.73;;;;;;;2.43;100.00;98165.13;4950295;23;20252;-83
2022/12/07 05:11:40;;;;;;;13.87;8.07;;;;;;;2.40;100.00;98167.84;4953819;28;20224;-81
2022/12/07 05:14:10;;;;;;;12.07;7.77;;;;;;;2.48;100.00;98174.50;4954178;28;20215;-81
2022/12/07 05:16:36;;;;;;;12.90;8.80;;;;;;;2.50;100.00;98183.09;4954137;28;20219;-82
2022/12/07 05:19:04;;;;;;;13.67;7.90;;;;;;;2.53;100.00;98177.78;4973150;28;20204;-82
2022/12/07 05:21:30;;;;;;;10.10;7.23;;;;;;;2.42;100.00;98179.94;4958113;29;20304;-82
2022/12/07 05:23:57;;;;;;;10.90;7.63;;;;;;;2.37;100.00;98176.63;4959064;29;20208;-82
2022/12/07 05:26:25;;;;;;;12.70;8.13;;;;;;;2.40;100.00;98173.06;4957891;29;20198;-82
2022/12/07 05:28:52;;;;;;;12.13;8.23;;;;;;;2.45;100.00;98174.59;4959286;29;20268;-82
2022/12/07 05:31:19;;;;;;;14.67;8.90;;;;;;;2.42;100.00;98176.47;4950862;29;20652;-81
2022/12/07 05:33:45;;;;;;;12.17;8.23;;;;;;;2.36;100.00;98171.47;4935909;29;20212;-81
2022/12/07 05:36:12;;;;;;;13.73;8.53;;;;;;;2.37;100.00;98171.41;4935505;29;20231;-82
2022/12/07 05:38:38;;;;;;;12.27;8.57;;;;;;;2.35;100.00;98172.38;4935415;29;20658;-81
2022/12/07 05:41:07;;;;;;;14.27;8.30;;;;;;;2.35;100.00;98175.84;4934430;29;20232;-82
2022/12/07 05:43:34;;;;;;;13.00;8.23;;;;;;;2.40;100.00;98178.28;4934336;29;20682;-82
2022/12/07 05:46:01;;;;;;;13.93;8.80;;;;;;;2.36;100.00;98172.34;4934085;29;20264;-82
2022/12/07 05:48:27;;;;;;;12.53;8.17;;;;;;;2.36;100.00;98174.94;4933923;29;20208;-82
2022/12/07 05:50:54;;;;;;;13.20;8.70;;;;;;;2.37;100.00;98174.03;4934309;29;20633;-82
2022/12/07 05:53:21;;;;;;;13.27;8.20;;;;;;;2.41;100.00;98172.16;4934323;29;20211;-82
2022/12/07 05:55:47;;;;;;;12.63;8.33;;;;;;;2.43;100.00;98173.81;4934062;29;20208;-82
2022/12/07 06:00:59;;;;;;;12.30;7.57;;;;;;;2.46;100.00;98184.13;4934118;29;20319;-82
2022/12/07 06:03:26;;;;;;;10.87;7.50;;;;;;;2.46;100.00;98180.66;4934010;29;20267;-82
2022/12/07 06:05:53;;;;;;;12.43;7.90;;;;;;;2.46;100.00;98193.72;4934099;29;20213;-82
2022/12/07 06:08:20;;;;;;;13.63;9.10;;;;;;;2.51;100.00;98192.63;4934041;29;20212;-82
2022/12/07 06:12:33;;;;;;;12.30;8.30;;;;;;;2.55;100.00;98188.16;4933860;29;20248;-82
2022/12/07 06:13:35;;;;;;;13.07;8.53;;;;;;;2.62;100.00;98185.25;4933779;29;20270;-82
2022/12/07 06:16:03;;;;;;;12.70;8.27;;;;;;;2.68;100.00;98184.16;4934086;29;20216;-82
2022/12/07 06:18:29;;;;;;;10.43;7.50;;;;;;;2.66;100.00;98181.66;4934181;29;20222;-82
2022/12/07 06:20:56;;;;;;;11.47;8.00;;;;;;;2.66;100.00;98176.41;4934132;29;20228;-82
2022/12/07 06:23:22;;;;;;;12.07;8.33;;;;;;;2.70;100.00;98171.94;4934112;29;20589;-82
2022/12/07 06:25:49;;;;;;;13.37;8.03;;;;;;;2.63;100.00;98171.31;4934481;29;20608;-82
2022/12/07 06:28:15;;;;;;;11.53;7.77;;;;;;;2.68;100.00;98171.13;4934539;29;20216;-82
2022/12/07 06:30:42;;;;;;;11.20;7.50;;;;;;;2.63;100.00;98162.66;4933905;29;20238;-82
2022/12/07 06:33:10;;;;;;;9.97;7.20;;;;;;;2.63;100.00;98155.66;4933879;29;20215;-82
2022/12/07 06:35:36;;;;;;;13.10;7.47;;;;;;;2.59;100.00;98159.31;4933816;29;20214;-81
2022/12/07 06:38:03;;;;;;;10.60;7.00;;;;;;;2.57;100.00;98176.75;4933757;29;20235;-82
2022/12/07 06:40:29;;;;;;;9.97;7.37;;;;;;;2.51;100.00;98176.13;4933608;29;20236;-82
2022/12/07 06:42:56;;;;;;;10.23;7.33;;;;;;;2.47;100.00;98183.22;4933598;29;20232;-82
2022/12/07 06:45:22;;;;;;;10.73;7.60;;;;;;;2.45;100.00;98177.19;4934025;29;20319;-81
2022/12/07 06:47:49;;;;;;;12.57;7.73;;;;;;;2.49;100.00;98184.00;4933615;29;20224;-82
2022/12/07 06:50:17;;;;;;;11.13;8.00;;;;;;;2.52;100.00;98178.66;4934036;29;20232;-82
2022/12/07 06:52:44;;;;;;;10.67;7.03;;;;;;;2.44;100.00;98180.72;4933890;29;20208;-82
2022/12/07 06:55:10;;;;;;;9.90;7.03;;;;;;;2.45;100.00;98182.41;4933576;29;20208;-82
2022/12/07 06:57:37;;;;;;;11.30;7.27;;;;;;;2.44;100.00;98180.72;4935532;29;20302;-82
2022/12/07 07:00:04;;;;;;;12.13;7.37;;;;;;;2.45;100.00;98178.97;4937191;29;20238;-82
2022/12/07 07:02:30;;;;;;;10.87;7.67;;;;;;;2.42;100.00;98179.94;4937482;29;20247;-81
2022/12/07 07:04:57;;;;;;;9.10;6.47;;;;;;;2.39;100.00;98190.47;4937135;29;20612;-82
2022/12/07 07:07:25;;;;;;;9.47;6.47;;;;;;;2.43;100.00;98181.63;4937395;29;20675;-81
2022/12/07 07:09:51;;;;;;;8.77;6.00;;;;;;;2.45;100.00;98185.03;4936708;29;20247;-82
2022/12/07 07:12:18;;;;;;;10.80;7.23;;;;;;;2.46;100.00;98186.72;4937311;29;20216;-82
2022/12/07 07:14:44;;;;;;;11.60;7.00;;;;;;;2.43;100.00;98189.44;4936866;29;20219;-81
2022/12/07 07:17:11;;;;;;;10.20;6.30;;;;;;;2.47;100.00;98191.06;4936748;29;20215;-82
2022/12/07 07:19:38;;;;;;;9.97;6.50;;;;;;;2.43;100.00;98199.88;4936807;29;20644;-82
2022/12/07 07:22:05;;;;;;;9.67;6.77;;;;;;;2.44;100.00;98201.59;4936701;29;20232;-82
2022/12/07 07:24:32;;;;;;;10.60;7.63;;;;;;;2.41;100.00;98196.50;4936551;29;20267;-82
2022/12/07 07:26:59;;;;;;;12.17;7.70;;;;;;;2.42;100.00;98200.78;4936506;29;20663;-82
2022/12/07 07:29:25;;;;;;;11.17;7.47;;;;;;;2.52;100.00;98191.72;4936807;29;20250;-81
2022/12/07 07:31:52;;;;;;;9.13;6.40;;;;;;;2.51;100.00;98200.44;4936832;29;20564;-82
2022/12/07 07:34:19;;;;;;;8.87;6.13;;;;;;;2.57;100.00;98202.84;4936596;29;20216;-82
2022/12/07 07:36:45;;;;;;;9.33;6.50;;;;;;;2.57;100.00;98205.44;4936168;29;20209;-82
2022/12/07 07:39:12;;;;;;;9.10;6.70;;;;;;;2.63;100.00;98194.78;4936633;29;20240;-82
2022/12/07 07:41:40;;;;;;;8.83;6.60;;;;;;;2.72;100.00;98197.06;4936558;29;20565;-82
2022/12/07 07:44:06;;;;;;;8.83;6.17;;;;;;;2.72;100.00;98185.78;4936679;29;20207;-81
2022/12/07 07:46:33;;;;;;;8.00;6.17;;;;;;;2.84;100.00;98183.56;4936262;29;20734;-82
2022/12/07 07:48:59;;;;;;;8.43;5.77;;;;;;;2.90;100.00;98187.69;4936454;29;20208;-82
2022/12/07 07:51:26;;;;;;;10.10;5.93;;;;;;;2.92;100.00;98188.47;4936250;29;20219;-82
2022/12/07 07:53:53;;;;;;;8.47;5.73;;;;;;;2.90;100.00;98185.06;4936412;29;20219;-82
2022/12/07 07:56:19;;;;;;;8.50;5.27;;;;;;;2.96;100.00;98180.50;4936070;29;20216;-82
2022/12/07 07:58:47;;;;;;;6.63;4.87;;;;;;;2.98;100.00;98181.28;4936285;29;20563;-82
2022/12/07 08:01:14;;;;;;;8.30;5.53;;;;;;;3.01;100.00;98178.53;4936150;29;20212;-82
2022/12/07 08:03:41;;;;;;;8.23;5.47;;;;;;;3.00;100.00;98174.22;4936166;29;20742;-77
2022/12/07 08:06:08;;;;;;;10.23;5.43;;;;;;;3.11;100.00;98179.06;4936391;29;20209;-81
2022/12/07 08:08:34;;;;;;;6.60;4.57;;;;;;;3.13;100.00;98167.59;4937275;29;20233;-84
2022/12/07 08:11:01;;;;;;;6.67;4.77;;;;;;;3.18;100.00;98170.88;4936923;29;20243;-81
2022/12/07 08:13:27;;;;;;;8.30;5.30;;;;;;;3.17;100.00;98163.97;4936277;29;20216;-84
2022/12/07 08:15:55;;;;;;;8.50;5.67;;;;;;;3.20;100.00;98163.00;4935827;29;20219;-83
2022/12/07 08:18:22;;;;;;;7.30;4.97;;;;;;;3.23;100.00;98171.56;4935958;29;20586;-83
2022/12/07 08:20:48;;;;;;;6.90;4.70;;;;;;;3.32;100.00;98172.97;4935804;29;20754;-84
2022/12/07 08:23:15;;;;;;;8.70;5.00;;;;;;;3.29;100.00;98163.50;4935683;29;20232;-80
2022/12/07 08:25:41;;;;;;;7.63;4.77;;;;;;;3.35;100.00;98173.69;4935628;29;20216;-81
2022/12/07 08:28:08;;;;;;;6.30;4.43;;;;;;;3.33;100.00;98175.53;4935548;29;20307;-83
2022/12/07 08:30:34;;;;;;;7.83;5.37;;;;;;;3.38;100.00;98173.59;4936318;29;20238;-83
2022/12/07 08:33:03;;;;;;;6.77;4.60;;;;;;;3.43;100.00;98189.91;4935508;29;20208;-76
2022/12/07 08:35:29;;;;;;;6.23;4.63;;;;;;;3.47;100.00;98181.03;4935730;29;20322;-83
2022/12/07 08:37:57;;;;;;;8.23;4.90;;;;;;;3.51;100.00;98180.00;4935465;29;20271;-83
2022/12/07 08:40:24;;;;;;;6.77;5.13;;;;;;;3.61;100.00;98183.09;4949378;29;20220;-83
2022/12/07 08:42:51;;;;;;;7.17;5.00;;;;;;;3.64;100.00;98170.75;4940718;29;20403;-83
2022/12/07 10:59:56;;;;;;;4.63;3.50;;;;;;;5.30;100.00;98117.78;5170436;27;20591;-79
2022/12/07 11:02:43;;;;;;;4.63;3.03;;;;;;;5.31;100.00;98108.16;5170973;27;20219;-81
2022/12/07 11:05:20;;;;;;;4.50;3.33;;;;;;;5.38;100.00;98112.19;5240322;22;20240;-88
2022/12/07 11:07:58;;;;;;;5.20;3.67;;;;;;;5.40;99.65;98098.09;5088700;28;20668;-82
2022/12/07 11:10:31;;;;;;;6.13;3.80;;;;;;;5.29;99.26;98089.91;5087776;28;20217;-85
2022/12/07 11:13:13;;;;;;;5.70;3.83;;;;;;;5.21;98.02;98080.72;5088151;28;20215;-91
2022/12/07 11:15:56;;;;;;;5.77;4.10;;;;;;;5.11;99.79;98098.66;5087498;28;20228;-91
2022/12/07 11:18:42;;;;;;;4.87;3.57;;;;;;;5.13;100.00;98094.16;5089107;28;20205;-93
2022/12/07 11:21:22;;;;;;;5.03;3.73;;;;;;;5.11;100.00;98103.03;5089673;28;20573;-89
2022/12/07 11:24:00;;;;;;;4.97;3.77;;;;;;;5.06;100.00;98095.41;5089640;28;20590;-92
2022/12/07 11:26:46;;;;;;;6.60;3.70;;;;;;;5.03;100.00;98098.19;5088400;28;20205;-87
2022/12/07 11:29:31;;;;;;;6.10;3.70;;;;;;;5.02;100.00;98100.84;5088350;28;20582;-91
2022/12/07 11:32:11;;;;;;;4.43;3.83;;;;;;;4.99;100.00;98096.63;5088536;28;20203;-91
2022/12/07 11:34:45;;;;;;;8.43;4.53;;;;;;;4.98;100.00;98089.69;5088163;28;20229;-89
2022/12/07 11:37:20;;;;;;;6.77;4.90;;;;;;;4.85;100.00;98099.03;5090249;28;20207;-91
2022/12/07 11:39:52;;;;;;;6.17;4.67;;;;;;;4.91;100.00;98090.91;5090826;28;20209;-89
2022/12/07 11:42:23;;;;;;;8.30;5.43;;;;;;;4.91;100.00;98092.66;5088216;28;20622;-90
2022/12/07 11:44:54;;;;;;;8.70;5.30;;;;;;;4.86;100.00;98085.03;5088101;28;20228;-87
2022/12/07 11:47:31;;;;;;;8.53;5.73;;;;;;;4.81;100.00;98073.91;5086500;28;20323;-87
2022/12/07 11:50:11;;;;;;;9.50;5.17;;;;;;;4.73;100.00;98073.44;5086460;28;20204;-82
2022/12/07 11:52:50;;;;;;;8.97;6.27;;;;;;;4.73;100.00;98083.91;5087765;28;20205;-83
2022/12/07 11:55:23;;;;;;;8.27;6.00;;;;;;;4.88;100.00;98080.56;5087471;28;20233;-80
2022/12/07 11:57:57;;;;;;;8.93;6.37;;;;;;;4.83;100.00;98072.06;5087331;28;20213;-86
2022/12/07 12:00:24;;;;;;;8.97;6.13;;;;;;;4.87;100.00;98076.25;5074690;28;20581;-80
2022/12/07 12:02:58;;;;;;;8.97;5.93;;;;;;;4.87;100.00;98068.38;5073787;28;20215;-86
2022/12/07 12:05:26;;;;;;;8.50;5.43;;;;;;;4.95;100.00;98075.88;5073817;28;20251;-86
2022/12/07 12:08:02;;;;;;;9.37;6.13;;;;;;;5.01;100.00;98073.81;5073736;28;20232;-86
2022/12/07 12:10:41;;;;;;;8.07;6.30;;;;;;;5.07;100.00;98056.97;5073390;28;20217;-86
2022/12/07 12:13:34;;;;;;;10.43;5.70;;;;;;;5.10;100.00;98055.03;5074055;28;20304;-86
2022/12/07 12:16:16;;;;;;;9.00;6.40;;;;;;;5.09;99.95;98048.13;5073894;28;20229;-85
2022/12/07 12:19:03;;;;;;;7.93;5.93;;;;;;;5.14;100.00;98048.72;5073771;28;20220;-86
2022/12/07 12:21:32;;;;;;;6.97;5.07;;;;;;;5.22;100.00;98048.34;5073509;28;20691;-86
2022/12/07 12:24:01;;;;;;;9.67;6.57;;;;;;;5.20;99.97;98039.72;5073634;28;20214;-86
2022/12/07 12:26:34;;;;;;;9.33;5.90;;;;;;;5.23;99.40;98034.31;5073369;28;20201;-85
2022/12/07 12:29:03;;;;;;;8.63;5.67;;;;;;;5.25;98.69;98025.44;5073091;28;20236;-80
2022/12/07 12:31:36;;;;;;;7.17;5.53;;;;;;;5.31;98.38;98017.28;5072950;28;20205;-85
2022/12/07 12:34:25;;;;;;;8.03;5.90;;;;;;;5.27;98.14;98028.00;5073217;28;20209;-88
2022/12/07 12:36:55;;;;;;;6.23;5.07;;;;;;;5.29;97.83;98021.78;5072881;28;20339;-86
2022/12/07 12:39:22;;;;;;;7.63;5.60;;;;;;;5.37;98.37;98019.59;5072973;28;20623;-86
2022/12/07 12:42:07;;;;;;;8.10;5.40;;;;;;;5.42;98.83;98028.09;5072968;28;20338;-86
2022/12/07 12:45:09;;;;;;;8.07;5.40;;;;;;;5.34;97.95;98026.78;5073236;28;20291;-86
2022/12/07 12:48:03;;;;;;;7.43;5.43;;;;;;;5.29;98.99;98042.72;5072783;28;20712;-86
2022/12/07 12:50:52;;;;;;;;;;;;;;;;;;;;;
2022/12/07 12:53:24;;;;;;;8.40;5.10;;;;;;;5.30;99.15;98027.84;5072685;28;20582;-86
2022/12/07 12:56:34;;;;;;;9.03;5.80;;;;;;;5.29;98.37;98016.53;5072759;28;20243;-89
2022/12/07 12:59:34;;;;;;;8.43;5.70;;;;;;;5.16;99.00;98022.44;5072763;28;20217;-89
2022/12/07 13:02:17;;;;;;;11.63;6.63;;;;;;;5.08;97.79;98017.56;4991269;28;20226;-89
2022/12/07 13:04:53;;;;;;;8.07;6.10;;;;;;;5.04;98.48;98013.44;4991117;28;20232;-90
2022/12/07 13:07:53;;;;;;;9.60;6.07;;;;;;;5.05;99.20;98017.75;5041681;28;20205;-89
2022/12/07 13:10:32;;;;;;;8.40;6.23;;;;;;;5.07;99.26;98010.66;5068412;28;20206;-89
2022/12/07 13:12:59;;;;;;;12.50;6.50;;;;;;;5.08;99.55;98014.97;5072454;28;20216;-89
2022/12/07 13:15:39;;;;;;;9.37;6.47;;;;;;;5.14;100.00;98014.66;5072351;28;20239;-89
2022/12/07 13:18:24;;;;;;;9.53;6.77;;;;;;;5.15;99.84;98003.28;5072474;28;20206;-90
2022/12/07 13:20:54;;;;;;;9.40;6.80;;;;;;;5.18;99.40;98013.59;5072317;28;20218;-87
2022/12/07 13:23:30;;;;;;;8.67;7.07;;;;;;;5.21;100.00;98016.06;5071091;28;20479;-82
2022/12/07 13:26:13;;;;;;;7.90;6.37;;;;;;;5.13;99.25;97994.63;5071926;28;20230;-82
2022/12/07 13:28:41;;;;;;;9.37;6.80;;;;;;;5.13;100.00;98006.91;5072312;28;20242;-82
2022/12/07 13:31:17;;;;;;;12.43;7.20;;;;;;;5.13;99.61;98001.66;5071866;28;20260;-84
2022/12/07 13:33:45;;;;;;;8.70;6.70;;;;;;;5.05;99.25;97995.94;5058397;28;20611;-84
2022/12/07 13:36:20;;;;;;;11.23;7.03;;;;;;;4.85;100.00;98004.78;5055019;28;20271;-84
2022/12/07 13:38:52;;;;;;;13.10;9.32;;;;;;;4.86;100.00;98006.47;5050968;28;20432;-81
2022/12/07 13:41:22;;;;;;;11.73;8.40;;;;;;;4.88;100.00;98020.34;5050661;28;20685;-85
2022/12/07 13:43:59;;;;;;;11.17;7.47;;;;;;;4.97;100.00;98019.91;5051754;28;20218;-85
2022/12/07 13:46:35;;;;;;;10.47;8.10;;;;;;;4.99;100.00;98012.81;5051869;28;20219;-85
2022/12/07 13:49:13;;;;;;;11.80;8.23;;;;;;;5.09;100.00;98014.06;5051699;28;20712;-85
2022/12/07 13:51:40;;;;;;;11.10;7.57;;;;;;;5.09;100.00;98013.19;5051808;28;20209;-85
2022/12/07 13:54:12;;;;;;;12.77;7.97;;;;;;;5.06;100.00;98019.44;5050929;28;20223;-84
2022/12/07 13:56:40;;;;;;;11.70;7.70;;;;;;;5.03;100.00;98011.75;5051239;28;20207;-84
2022/12/07 13:59:15;;;;;;;12.07;8.17;;;;;;;5.09;100.00;98011.44;5051130;28;20217;-85
2022/12/07 14:01:56;;;;;;;11.87;7.60;;;;;;;5.07;100.00;98010.66;5051471;28;20209;-85
2022/12/07 14:04:40;;;;;;;12.00;7.50;;;;;;;5.14;100.00;98012.03;5051549;28;20229;-84